Time;durP1;ratioP1;P1;durP2;ratioP2;P2;SDS_P1;SDS_P2;PMS_P1;PMS_P2;Temp;Humidity;BMP_temperature;BMP_pressure;BME280_temperature;BME280_humidity;BME280_pressure;Samples;Min_cycle;Max_cycle;Signal;HPM_P1;HPM_P2
2022/03/09 00:04:03;;;;;;;68.60;32.70;;;;;;;-1.56;71.39;99352.98;219010;1275;22626;-69
2022/03/09 00:09:14;;;;;;;64.40;31.30;;;;;;;-1.51;71.59;99353.65;218996;1276;22554;-68
2022/03/09 00:14:39;;;;;;;69.80;31.50;;;;;;;-1.48;71.49;99353.21;219187;1276;26242;-69
2022/03/09 00:19:55;;;;;;;65.60;31.90;;;;;;;-1.43;71.62;99346.77;219214;1276;24258;-69
2022/03/09 00:25:12;;;;;;;61.10;30.00;;;;;;;-1.40;71.62;99347.52;219333;1277;22559;-70
2022/03/09 00:30:15;;;;;;;56.10;28.70;;;;;;;-1.37;71.82;99348.98;219272;1276;22540;-70
2022/03/09 00:35:17;;;;;;;63.80;28.60;;;;;;;-1.34;72.07;99350.75;219217;1276;25440;-69
2022/03/09 00:40:21;;;;;;;60.80;28.30;;;;;;;-1.34;72.03;99342.57;219179;1276;22558;-69
2022/03/09 00:45:23;;;;;;;51.90;26.20;;;;;;;-1.33;72.03;99340.42;219253;1276;22714;-70
2022/03/09 00:50:29;;;;;;;58.50;29.50;;;;;;;-1.32;72.21;99340.51;219189;1276;22844;-69
2022/03/09 00:55:42;;;;;;;65.80;31.50;;;;;;;-1.30;72.11;99332.67;219147;1276;25311;-70
2022/03/09 01:00:45;;;;;;;71.60;34.00;;;;;;;-1.31;72.24;99330.56;219115;1276;24849;-68
2022/03/09 01:05:48;;;;;;;64.90;31.90;;;;;;;-1.33;72.11;99334.36;219029;1276;22705;-68
2022/03/09 01:10:50;;;;;;;63.00;29.60;;;;;;;-1.32;72.47;99339.35;219257;1276;24292;-68
2022/03/09 01:15:56;;;;;;;63.60;30.20;;;;;;;-1.27;72.48;99343.48;218983;1276;24287;-69
2022/03/09 01:21:02;;;;;;;62.60;30.00;;;;;;;-1.21;72.42;99333.04;219083;1276;25548;-69
2022/03/09 01:26:04;;;;;;;60.10;29.80;;;;;;;-1.17;72.43;99328.43;219021;1276;24325;-69
2022/03/09 01:31:11;;;;;;;61.60;31.70;;;;;;;-1.14;72.46;99314.73;219248;1276;22775;-69
2022/03/09 01:36:13;;;;;;;62.50;30.60;;;;;;;-1.11;72.60;99303.13;218865;1276;24243;-69
2022/03/09 01:41:21;;;;;;;63.50;30.10;;;;;;;-1.07;72.76;99298.73;218907;1276;24453;-70
2022/03/09 01:46:28;;;;;;;63.10;30.00;;;;;;;-1.05;72.76;99296.63;219277;1276;25443;-69
2022/03/09 01:51:38;;;;;;;63.40;31.60;;;;;;;-1.04;72.71;99304.51;218985;1276;22538;-69
2022/03/09 01:56:43;;;;;;;58.90;30.20;;;;;;;-1.02;72.87;99301.09;219082;1276;25742;-70
2022/03/09 02:01:47;;;;;;;59.70;29.60;;;;;;;-1.02;72.91;99295.50;219057;1276;22643;-69
2022/03/09 02:06:49;;;;;;;61.50;29.70;;;;;;;-1.01;73.01;99290.36;218914;1277;22599;-69
2022/03/09 02:11:52;;;;;;;59.10;30.00;;;;;;;-1.01;72.94;99292.03;219021;1276;22532;-70
2022/03/09 02:16:56;;;;;;;60.90;30.50;;;;;;;-0.98;73.23;99292.83;219047;1276;22635;-69
2022/03/09 02:22:10;;;;;;;60.20;29.20;;;;;;;-0.96;73.15;99288.27;219039;1276;24009;-69
2022/03/09 02:27:12;;;;;;;61.60;28.30;;;;;;;-0.95;73.31;99290.23;219020;1276;22718;-68
2022/03/09 02:32:15;;;;;;;55.60;27.50;;;;;;;-0.94;73.38;99290.97;219046;1276;22518;-68
2022/03/09 02:37:20;;;;;;;55.70;28.90;;;;;;;-0.93;73.35;99288.18;218908;1276;22767;-69
2022/03/09 02:42:22;;;;;;;53.80;28.00;;;;;;;-0.93;73.29;99284.55;218967;1276;23997;-69
2022/03/09 02:47:25;;;;;;;49.20;26.50;;;;;;;-0.94;73.41;99282.39;218924;1276;22765;-69
2022/03/09 02:52:30;;;;;;;60.20;29.30;;;;;;;-0.97;73.34;99274.42;219121;1276;22661;-69
2022/03/09 02:57:46;;;;;;;51.70;28.00;;;;;;;-1.04;73.36;99277.13;219227;1275;22990;-70
2022/03/09 03:02:48;;;;;;;54.00;26.70;;;;;;;-1.12;73.48;99275.45;219664;1276;24351;-69
2022/03/09 03:07:50;;;;;;;57.30;28.20;;;;;;;-1.18;73.32;99269.04;219353;1276;25374;-69
2022/03/09 03:12:52;;;;;;;48.80;26.70;;;;;;;-1.26;73.59;99275.27;219161;1276;24171;-69
2022/03/09 03:17:55;;;;;;;54.80;27.40;;;;;;;-1.34;73.69;99275.41;219136;1276;26615;-69
2022/03/09 03:22:57;;;;;;;54.60;27.60;;;;;;;-1.43;73.70;99275.73;219045;1276;24339;-69
2022/03/09 03:27:59;;;;;;;54.20;28.60;;;;;;;-1.46;74.05;99276.66;219163;1276;22566;-70
2022/03/09 03:33:01;;;;;;;50.70;27.10;;;;;;;-1.48;74.11;99277.91;219178;1276;22714;-69
2022/03/09 03:38:04;;;;;;;53.00;28.00;;;;;;;-1.46;74.20;99276.05;219203;1275;25429;-69
2022/03/09 03:43:07;;;;;;;52.60;27.40;;;;;;;-1.44;74.37;99276.38;219124;1276;22547;-68
2022/03/09 03:48:16;;;;;;;51.10;25.20;;;;;;;-1.43;74.32;99275.21;219173;1276;22883;-70
2022/03/09 03:53:21;;;;;;;50.10;25.60;;;;;;;-1.40;74.51;99278.09;219104;1276;22706;-69
2022/03/09 03:58:23;;;;;;;47.30;24.80;;;;;;;-1.37;74.56;99281.59;219140;1276;24231;-68
2022/03/09 04:03:26;;;;;;;52.10;25.70;;;;;;;-1.35;74.63;99285.83;219031;1276;24239;-68
2022/03/09 04:08:28;;;;;;;52.30;25.40;;;;;;;-1.32;74.73;99289.64;219166;1274;22805;-68
2022/03/09 04:13:30;;;;;;;52.70;25.70;;;;;;;-1.27;74.49;99290.63;219191;1276;22740;-69
2022/03/09 04:18:32;;;;;;;48.40;24.70;;;;;;;-1.23;74.84;99291.98;219138;1276;22544;-69
2022/03/09 04:23:56;;;;;;;49.50;26.00;;;;;;;-1.17;74.66;99288.50;219140;1276;22632;-68
2022/03/09 04:28:59;;;;;;;49.80;24.90;;;;;;;-1.13;74.80;99291.48;219077;1276;22571;-70
2022/03/09 04:34:05;;;;;;;48.90;24.50;;;;;;;-1.11;74.80;99298.64;219095;1276;24258;-69
2022/03/09 04:39:14;;;;;;;51.40;26.40;;;;;;;-1.08;74.82;99304.52;219317;1276;22613;-70
2022/03/09 04:44:16;;;;;;;55.40;27.80;;;;;;;-1.06;74.84;99310.50;219261;1276;22754;-69
2022/03/09 04:49:18;;;;;;;55.50;27.00;;;;;;;-1.08;74.76;99311.15;219275;1276;22559;-70
2022/03/09 04:54:26;;;;;;;58.90;28.50;;;;;;;-1.11;75.03;99310.29;219110;1276;22635;-69
2022/03/09 04:59:29;;;;;;;56.50;28.40;;;;;;;-1.12;74.96;99304.83;218996;1276;22731;-69
2022/03/09 05:04:31;;;;;;;56.20;27.70;;;;;;;-1.13;75.02;99308.14;219033;1276;22948;-70
2022/03/09 05:09:34;;;;;;;55.70;28.70;;;;;;;-1.11;75.07;99309.52;219070;1276;26147;-69
2022/03/09 05:14:37;;;;;;;52.10;27.10;;;;;;;-1.08;75.38;99315.70;219132;1276;24749;-69
2022/03/09 05:19:39;;;;;;;54.30;26.70;;;;;;;-1.05;75.21;99312.36;219221;1276;22764;-69
2022/03/09 05:24:41;;;;;;;56.20;26.70;;;;;;;-1.03;75.35;99308.20;219190;1276;22756;-69
2022/03/09 05:29:43;;;;;;;51.20;25.90;;;;;;;-1.01;75.29;99307.67;218837;1276;24383;-70
2022/03/09 05:34:49;;;;;;;54.80;25.60;;;;;;;-0.99;75.29;99306.88;218896;1276;22778;-66
2022/03/09 05:39:57;;;;;;;59.60;27.50;;;;;;;-0.95;75.34;99304.53;219109;1276;24417;-67
2022/03/09 05:45:02;;;;;;;52.40;24.80;;;;;;;-0.88;75.50;99302.20;218826;1276;22529;-70
2022/03/09 05:50:21;;;;;;;55.00;26.30;;;;;;;-0.82;75.35;99305.31;218862;1277;25560;-71
2022/03/09 05:55:29;;;;;;;57.90;26.50;;;;;;;-0.77;75.12;99310.02;218958;1276;24286;-67
2022/03/09 06:00:35;;;;;;;51.90;26.00;;;;;;;-0.70;75.47;99309.42;219019;1276;23050;-69
2022/03/09 06:05:50;;;;;;;47.90;25.70;;;;;;;-0.62;75.38;99312.58;218943;1276;22739;-70
2022/03/09 06:10:53;;;;;;;44.00;25.00;;;;;;;-0.61;75.29;99321.00;218971;1276;22553;-70
2022/03/09 06:15:58;;;;;;;53.70;27.10;;;;;;;-0.62;75.14;99322.77;219156;1277;23038;-69
2022/03/09 06:21:00;;;;;;;55.90;26.60;;;;;;;-0.67;75.32;99317.11;219107;1276;24189;-70
2022/03/09 06:26:05;;;;;;;50.20;25.30;;;;;;;-0.68;75.29;99319.48;218977;1276;24255;-69
2022/03/09 06:31:11;;;;;;;53.40;27.50;;;;;;;-0.62;75.44;99316.63;219241;1276;25435;-68
2022/03/09 06:36:13;;;;;;;54.80;26.40;;;;;;;-0.49;75.51;99317.77;219291;1276;22555;-69
2022/03/09 06:41:17;;;;;;;54.80;27.20;;;;;;;-0.33;75.69;99319.67;218860;1276;24298;-69
2022/03/09 06:46:19;;;;;;;55.90;27.30;;;;;;;-0.15;75.47;99316.08;218727;1274;22620;-68
2022/03/09 06:51:22;;;;;;;50.40;25.00;;;;;;;0.04;75.51;99326.27;220087;1276;22557;-71
2022/03/09 06:56:26;;;;;;;54.80;28.00;;;;;;;0.27;75.03;99333.34;220293;1276;22475;-69
2022/03/09 07:01:28;;;;;;;49.60;27.10;;;;;;;0.48;75.11;99332.59;218688;1275;22636;-68
2022/03/09 07:06:31;;;;;;;53.20;27.20;;;;;;;0.72;75.02;99329.17;218528;1276;22602;-69
2022/03/09 07:11:33;;;;;;;56.20;28.40;;;;;;;0.99;74.88;99328.74;218952;1276;22570;-68
2022/03/09 07:16:36;;;;;;;52.20;27.50;;;;;;;1.18;74.32;99333.70;218372;1276;22632;-69
2022/03/09 07:21:39;;;;;;;49.30;25.20;;;;;;;1.34;74.08;99330.96;218423;1276;22557;-69
2022/03/09 07:26:44;;;;;;;57.40;26.00;;;;;;;1.47;73.67;99326.16;218362;1276;296181;-67
2022/03/09 07:31:47;;;;;;;43.10;23.40;;;;;;;1.60;73.49;99328.77;218747;1276;23981;-69
2022/03/09 07:37:11;;;;;;;38.70;20.70;;;;;;;1.73;73.11;99324.73;218628;1276;22560;-69
2022/03/09 07:42:16;;;;;;;41.00;20.60;;;;;;;1.88;73.05;99324.72;218933;1274;22535;-69
2022/03/09 07:47:26;;;;;;;39.60;20.90;;;;;;;2.05;73.03;99322.85;218657;1275;24412;-69
2022/03/09 07:52:38;;;;;;;37.00;20.00;;;;;;;2.27;72.81;99321.52;220448;1276;22570;-70
2022/03/09 07:57:41;;;;;;;39.70;20.80;;;;;;;2.45;72.45;99317.98;218349;1275;22666;-69
2022/03/09 08:02:44;;;;;;;34.90;20.50;;;;;;;2.62;72.17;99318.05;218766;1276;23186;-70
2022/03/09 08:07:47;;;;;;;40.00;21.60;;;;;;;2.77;71.93;99329.96;218752;1276;23512;-68
2022/03/09 08:12:52;;;;;;;36.50;20.80;;;;;;;2.99;71.86;99334.28;218824;1277;22622;-69
2022/03/09 08:18:06;;;;;;;34.70;20.40;;;;;;;3.23;71.35;99338.35;218640;1277;22477;-68
2022/03/09 08:23:08;;;;;;;32.20;18.50;;;;;;;3.41;70.98;99337.10;218169;1276;23927;-69
2022/03/09 08:28:11;;;;;;;41.70;19.70;;;;;;;3.56;70.52;99340.98;218379;1276;22546;-70
2022/03/09 08:33:14;;;;;;;33.50;19.10;;;;;;;3.70;70.19;99344.89;218522;1276;22686;-68
2022/03/09 08:38:17;;;;;;;32.20;18.60;;;;;;;3.88;70.18;99345.68;218343;1276;23445;-69
2022/03/09 08:43:20;;;;;;;33.50;18.20;;;;;;;4.05;69.37;99349.02;218108;1277;25453;-68
2022/03/09 08:48:26;;;;;;;30.60;17.30;;;;;;;4.18;69.32;99340.88;218068;1276;25441;-68
2022/03/09 08:53:29;;;;;;;27.90;16.20;;;;;;;4.43;69.40;99339.96;218599;1276;25456;-69
2022/03/09 08:58:44;;;;;;;25.20;15.80;;;;;;;4.70;68.59;99338.70;218402;1275;25376;-69
2022/03/09 09:03:48;;;;;;;27.00;15.80;;;;;;;4.84;67.69;99341.59;218015;1278;24144;-69
2022/03/09 09:08:53;;;;;;;25.80;15.50;;;;;;;4.94;67.13;99339.91;218288;1276;28638;-70
2022/03/09 09:13:56;;;;;;;29.40;16.20;;;;;;;5.07;66.65;99335.36;218376;1276;25313;-69
2022/03/09 09:19:01;;;;;;;23.00;14.10;;;;;;;5.14;66.08;99342.63;218126;1276;22610;-68
2022/03/09 09:24:05;;;;;;;20.90;12.40;;;;;;;5.21;64.62;99335.93;217994;1276;25340;-68
2022/03/09 09:29:07;;;;;;;18.10;11.60;;;;;;;5.30;63.77;99335.50;217793;1278;22505;-68
2022/03/09 09:34:09;;;;;;;24.60;10.40;;;;;;;5.38;62.70;99337.08;217868;1276;23767;-68
2022/03/09 09:39:24;;;;;;;17.40;10.80;;;;;;;5.35;61.31;99337.98;218102;1276;22534;-68
2022/03/09 09:44:26;;;;;;;18.40;9.30;;;;;;;5.12;60.66;99334.82;219173;1276;25364;-68
2022/03/09 09:49:34;;;;;;;17.30;9.30;;;;;;;4.85;59.49;99334.91;217893;1276;22570;-68
2022/03/09 09:54:40;;;;;;;14.90;9.00;;;;;;;4.66;58.62;99332.16;217976;1276;23044;-68
2022/03/09 09:59:44;;;;;;;15.70;8.60;;;;;;;4.69;58.51;99330.73;218018;1276;22579;-70
2022/03/09 10:04:50;;;;;;;15.60;9.00;;;;;;;4.79;58.45;99322.54;220658;1276;22573;-69
2022/03/09 10:09:59;;;;;;;13.00;7.70;;;;;;;4.91;57.23;99324.46;218003;1277;25322;-69
2022/03/09 10:15:02;;;;;;;12.50;8.30;;;;;;;5.02;56.53;99321.62;217955;1276;22511;-69
2022/03/09 10:20:10;;;;;;;13.50;7.40;;;;;;;5.12;56.19;99322.61;219422;1276;22581;-68
2022/03/09 10:25:13;;;;;;;14.20;8.50;;;;;;;5.25;56.46;99321.09;216810;1276;25993;-68
2022/03/09 10:30:24;;;;;;;14.00;8.30;;;;;;;5.37;56.40;99320.94;216422;1276;22572;-68
2022/03/09 10:35:30;;;;;;;15.20;8.60;;;;;;;5.46;55.64;99320.84;216320;1276;22539;-68
2022/03/09 10:40:45;;;;;;;13.90;9.20;;;;;;;5.55;55.61;99307.91;215857;1278;22547;-68
2022/03/09 10:46:11;;;;;;;16.40;10.20;;;;;;;5.73;55.90;99303.19;216250;1277;25323;-68
2022/03/09 10:51:26;;;;;;;14.50;9.10;;;;;;;5.97;55.82;99297.57;225493;1276;22685;-69
2022/03/09 10:56:30;;;;;;;23.10;11.10;;;;;;;6.26;55.15;99297.17;221536;1276;23010;-67
2022/03/09 11:01:32;;;;;;;17.80;9.50;;;;;;;6.50;54.45;99302.36;216019;1278;25258;-67
2022/03/09 11:06:42;;;;;;;17.00;10.50;;;;;;;6.55;52.58;99302.42;216887;1276;25482;-68
2022/03/09 11:11:49;;;;;;;15.30;9.80;;;;;;;6.60;52.81;99301.09;218132;1277;24327;-68
2022/03/09 11:16:59;;;;;;;16.00;9.50;;;;;;;6.76;53.46;99293.88;218094;1277;24236;-68
2022/03/09 11:22:01;;;;;;;12.80;8.30;;;;;;;7.05;52.96;99294.16;218004;1276;22510;-68
2022/03/09 11:27:04;;;;;;;12.90;8.50;;;;;;;7.25;50.97;99295.77;218117;1276;24270;-68
2022/03/09 11:32:09;;;;;;;14.10;8.20;;;;;;;7.25;50.52;99289.91;218553;1276;22514;-67
2022/03/09 11:37:33;;;;;;;10.90;7.30;;;;;;;7.33;50.51;99288.61;217764;1277;24703;-68
2022/03/09 11:42:43;;;;;;;10.30;6.70;;;;;;;7.46;49.42;99286.09;219731;1276;22560;-68
2022/03/09 11:48:03;;;;;;;9.10;6.10;;;;;;;7.57;48.74;99288.73;218700;1276;23831;-68
2022/03/09 11:53:11;;;;;;;9.40;6.50;;;;;;;7.59;47.54;99289.05;219107;1276;24250;-69
2022/03/09 11:58:23;;;;;;;8.50;6.20;;;;;;;7.52;47.03;99276.69;218296;1276;22631;-69
2022/03/09 12:03:39;;;;;;;9.60;6.40;;;;;;;7.57;47.34;99273.05;218152;1276;22553;-69
2022/03/09 12:08:46;;;;;;;10.30;6.50;;;;;;;7.83;48.11;99272.26;219062;1277;24555;-68
2022/03/09 12:13:51;;;;;;;8.50;6.50;;;;;;;8.20;46.99;99271.02;218197;1276;26593;-67
2022/03/09 12:19:04;;;;;;;8.60;6.00;;;;;;;8.39;47.29;99260.95;217970;1277;24656;-68
2022/03/09 12:24:06;;;;;;;10.30;7.00;;;;;;;8.52;46.88;99256.42;218368;1274;24225;-68
2022/03/09 12:29:31;;;;;;;10.20;6.40;;;;;;;8.53;45.81;99258.87;218331;1276;24098;-68
2022/03/09 12:34:45;;;;;;;10.20;6.10;;;;;;;8.42;46.17;99254.70;218219;1276;22492;-67
2022/03/09 12:39:57;;;;;;;9.50;6.70;;;;;;;8.29;45.95;99252.84;218805;1277;24726;-67
2022/03/09 12:45:02;;;;;;;9.90;6.70;;;;;;;8.16;45.97;99251.83;218778;1277;24285;-69
2022/03/09 12:50:08;;;;;;;9.20;6.70;;;;;;;8.08;46.42;99254.73;219594;1277;22587;-69
2022/03/09 12:55:29;;;;;;;9.70;6.90;;;;;;;7.98;46.05;99251.73;218010;1276;22571;-70
2022/03/09 13:00:37;;;;;;;9.50;6.50;;;;;;;7.92;45.88;99254.39;218182;1277;22673;-70
2022/03/09 13:05:49;;;;;;;10.30;7.20;;;;;;;7.79;46.06;99248.71;217957;1277;22810;-69
2022/03/09 13:10:53;;;;;;;9.80;6.40;;;;;;;7.82;46.07;99242.91;218310;1276;24273;-69
2022/03/09 13:16:04;;;;;;;9.70;7.20;;;;;;;7.94;46.03;99243.83;218224;1277;22565;-69
2022/03/09 13:21:10;;;;;;;9.60;6.50;;;;;;;8.07;45.67;99238.51;218135;1277;24287;-69
2022/03/09 13:26:16;;;;;;;10.30;6.70;;;;;;;8.09;45.60;99237.01;218007;1277;24234;-69
2022/03/09 13:31:20;;;;;;;10.20;6.90;;;;;;;8.06;45.44;99233.15;218366;1277;24244;-69
2022/03/09 13:36:25;;;;;;;8.10;6.20;;;;;;;8.13;45.79;99232.98;218258;1277;24254;-69
2022/03/09 13:41:39;;;;;;;9.50;6.00;;;;;;;8.16;44.94;99238.27;219228;1277;24348;-69
2022/03/09 13:46:41;;;;;;;9.70;5.90;;;;;;;8.10;44.54;99249.98;218492;1276;22724;-68
2022/03/09 13:51:46;;;;;;;9.60;6.40;;;;;;;8.14;44.95;99251.50;219112;1276;24251;-69
2022/03/09 13:57:02;;;;;;;9.00;6.40;;;;;;;8.17;44.60;99245.76;218049;1277;23764;-69
2022/03/09 14:02:23;;;;;;;8.40;6.70;;;;;;;8.03;43.87;99245.38;217927;1277;24427;-68
2022/03/09 14:07:37;;;;;;;8.70;6.40;;;;;;;7.87;44.21;99234.89;218041;1277;24202;-69
2022/03/09 14:12:44;;;;;;;9.00;6.60;;;;;;;7.84;44.39;99228.15;218063;1277;22592;-69
2022/03/09 14:17:46;;;;;;;8.90;6.20;;;;;;;7.88;44.67;99223.05;218034;1277;22608;-68
2022/03/09 14:22:49;;;;;;;8.50;5.60;;;;;;;7.93;44.88;99225.47;218951;1277;24261;-68
2022/03/09 14:27:57;;;;;;;6.20;5.00;;;;;;;7.94;44.94;99223.70;218067;1277;22540;-68
2022/03/09 14:33:00;;;;;;;7.70;5.50;;;;;;;7.93;44.28;99222.52;218042;1277;22788;-69
2022/03/09 14:38:02;;;;;;;7.70;5.30;;;;;;;7.88;44.10;99221.92;218092;1276;23800;-70
2022/03/09 14:43:06;;;;;;;8.00;5.60;;;;;;;7.81;44.03;99221.89;218156;1276;25991;-70
2022/03/09 14:54:24;;;;;;;7.80;5.30;;;;;;;7.68;44.38;99228.39;217935;1276;22607;-69
2022/03/09 14:59:37;;;;;;;9.30;5.00;;;;;;;7.64;43.35;99228.35;218126;1276;22567;-69
2022/03/09 15:04:40;;;;;;;7.40;4.90;;;;;;;7.53;43.47;99224.40;218044;1276;22564;-69
2022/03/09 15:10:03;;;;;;;6.90;5.00;;;;;;;7.45;43.01;99231.86;218007;1278;22705;-68
2022/03/09 15:15:11;;;;;;;7.70;4.70;;;;;;;7.33;42.71;99229.86;218871;1276;26265;-69
2022/03/09 15:20:16;;;;;;;7.40;4.40;;;;;;;7.24;43.09;99234.80;218949;1276;25364;-69
2022/03/09 15:25:20;;;;;;;7.80;4.60;;;;;;;7.16;43.26;99232.55;217956;1276;26782;-68
2022/03/09 15:30:22;;;;;;;7.10;4.90;;;;;;;7.08;43.56;99233.50;218288;1276;25264;-69
2022/03/09 15:35:29;;;;;;;6.00;4.10;;;;;;;6.99;43.21;99231.84;218263;1277;22730;-70
2022/03/09 15:40:49;;;;;;;;;;;;;;;6.90;42.99;99235.95;218305;1276;22505;-70
2022/03/09 15:45:54;;;;;;;6.90;4.90;;;;;;;6.78;43.11;99238.34;218355;1276;24245;-70
2022/03/09 15:51:00;;;;;;;13.20;7.40;;;;;;;6.69;43.05;99248.05;218485;1276;22710;-70
2022/03/09 15:56:06;;;;;;;16.60;9.30;;;;;;;6.58;43.37;99252.83;219462;1276;22731;-70
2022/03/09 16:01:10;;;;;;;9.30;5.30;;;;;;;6.46;44.03;99254.84;218644;1276;23901;-70
2022/03/09 16:06:17;;;;;;;9.90;5.40;;;;;;;6.33;44.36;99260.34;218534;1276;22606;-69
2022/03/09 16:11:23;;;;;;;8.50;5.30;;;;;;;6.16;44.45;99254.92;218308;1276;22570;-69
2022/03/09 16:16:26;;;;;;;9.90;5.90;;;;;;;6.03;44.76;99263.63;218167;1276;25941;-69
2022/03/09 16:21:33;;;;;;;8.40;5.70;;;;;;;5.88;45.05;99268.89;218483;1276;22567;-69
2022/03/09 16:26:36;;;;;;;8.50;6.00;;;;;;;5.73;45.73;99284.03;218862;1276;25251;-68
2022/03/09 16:31:39;;;;;;;11.60;7.10;;;;;;;5.57;46.24;99290.13;218989;1276;25457;-68
2022/03/09 16:36:55;;;;;;;17.30;7.30;;;;;;;5.42;46.53;99302.64;218640;1277;26473;-69
2022/03/09 16:42:04;;;;;;;14.90;8.00;;;;;;;5.26;46.61;99313.42;218494;1276;25254;-68
2022/03/09 16:47:19;;;;;;;11.90;6.90;;;;;;;5.13;46.67;99321.28;218928;1276;22568;-69
2022/03/09 16:52:24;;;;;;;11.30;6.50;;;;;;;5.06;46.70;99319.84;218692;1276;23107;-68
2022/03/09 16:57:30;;;;;;;11.50;6.80;;;;;;;4.97;46.70;99326.05;218841;1276;24818;-68
2022/03/09 17:02:32;;;;;;;18.40;9.10;;;;;;;4.88;46.79;99329.75;218486;1276;24111;-69
2022/03/09 17:07:35;;;;;;;16.80;8.80;;;;;;;4.78;47.19;99340.21;219559;1276;22557;-68
2022/03/09 17:12:41;;;;;;;16.30;9.70;;;;;;;4.71;47.20;99342.50;218623;1276;24688;-69
2022/03/09 17:17:48;;;;;;;15.60;10.10;;;;;;;4.63;47.52;99343.36;218275;1276;25498;-68
2022/03/09 17:22:53;;;;;;;15.70;8.90;;;;;;;4.56;47.82;99346.98;218917;1276;22547;-69
2022/03/09 17:27:58;;;;;;;15.40;8.90;;;;;;;4.47;47.82;99350.94;218293;1276;23166;-67
2022/03/09 17:33:02;;;;;;;17.90;9.70;;;;;;;4.37;47.97;99351.38;218211;1276;22582;-68
2022/03/09 17:38:04;;;;;;;21.50;11.60;;;;;;;4.28;48.14;99351.06;218564;1276;24259;-68
2022/03/09 17:43:27;;;;;;;20.20;11.50;;;;;;;4.20;48.51;99357.41;218687;1276;23327;-68
2022/03/09 17:48:32;;;;;;;17.90;10.80;;;;;;;4.13;48.74;99363.20;218347;1276;22461;-68
2022/03/09 17:53:35;;;;;;;20.60;11.10;;;;;;;4.12;48.97;99366.54;218281;1276;25440;-69
2022/03/09 17:58:37;;;;;;;19.90;10.90;;;;;;;4.12;49.31;99367.05;218283;1276;25286;-68
2022/03/09 18:03:40;;;;;;;16.00;8.90;;;;;;;4.16;49.54;99368.42;218235;1276;22546;-69
2022/03/09 18:08:45;;;;;;;14.40;8.60;;;;;;;4.21;49.76;99372.60;218408;1276;22555;-70
2022/03/09 18:13:48;;;;;;;14.20;9.00;;;;;;;4.24;50.08;99372.84;218137;1276;22578;-69
2022/03/09 18:18:50;;;;;;;15.20;8.40;;;;;;;4.26;50.27;99380.52;218021;1276;22574;-68
2022/03/09 18:23:52;;;;;;;15.90;9.60;;;;;;;4.26;50.48;99378.19;218342;1276;22558;-70
2022/03/09 18:28:55;;;;;;;14.40;9.20;;;;;;;4.27;50.74;99381.98;218334;1276;22543;-69
2022/03/09 18:33:58;;;;;;;18.10;9.80;;;;;;;4.32;50.86;99383.93;218336;1276;25834;-69
2022/03/09 18:39:02;;;;;;;15.00;9.50;;;;;;;4.35;50.90;99386.87;218348;1276;25617;-68
2022/03/09 18:44:06;;;;;;;18.20;9.70;;;;;;;4.40;50.88;99389.89;218241;1276;25324;-69
2022/03/09 18:49:13;;;;;;;15.90;9.20;;;;;;;4.43;51.12;99393.71;218191;1276;25373;-69
2022/03/09 18:54:16;;;;;;;18.40;10.60;;;;;;;4.43;51.29;99400.04;218186;1276;24310;-69
2022/03/09 18:59:19;;;;;;;17.40;10.60;;;;;;;4.41;51.46;99403.13;218295;1276;24670;-69
2022/03/09 19:04:23;;;;;;;20.50;10.70;;;;;;;4.38;51.85;99408.21;218167;1276;23233;-68
2022/03/09 19:09:26;;;;;;;21.00;12.00;;;;;;;4.33;52.02;99408.52;218761;1276;22631;-68
2022/03/09 19:14:31;;;;;;;21.60;12.30;;;;;;;4.27;52.23;99407.35;218133;1276;24257;-69
2022/03/09 19:19:34;;;;;;;22.70;11.60;;;;;;;4.24;52.38;99411.20;218237;1276;22754;-69
2022/03/09 19:24:36;;;;;;;22.90;11.70;;;;;;;4.21;52.93;99404.87;217937;1276;445120;-70
2022/03/09 19:29:38;;;;;;;23.60;11.90;;;;;;;4.19;53.10;99401.79;218145;1276;25373;-69
2022/03/09 19:34:41;;;;;;;19.60;10.70;;;;;;;4.17;53.23;99403.88;218311;1276;22552;-69
2022/03/09 19:39:43;;;;;;;16.20;9.20;;;;;;;4.15;53.38;99410.51;218419;1276;22733;-69
2022/03/09 19:44:46;;;;;;;18.50;10.60;;;;;;;4.11;53.65;99417.61;218139;1276;22556;-69
2022/03/09 19:49:48;;;;;;;24.00;13.20;;;;;;;4.06;53.83;99422.91;218085;1276;22542;-69
2022/03/09 19:54:51;;;;;;;23.80;13.80;;;;;;;4.02;54.19;99428.61;218154;1276;22771;-68
2022/03/09 19:59:53;;;;;;;31.40;16.30;;;;;;;3.97;54.33;99430.08;217922;1276;24149;-71
2022/03/09 20:04:56;;;;;;;33.50;16.70;;;;;;;3.92;54.43;99434.48;218350;1276;23799;-69
2022/03/09 20:09:58;;;;;;;30.80;16.80;;;;;;;3.87;54.70;99441.58;218185;1276;25371;-67
2022/03/09 20:15:01;;;;;;;28.30;14.90;;;;;;;3.82;54.90;99448.70;218176;1276;24222;-70
2022/03/09 20:20:05;;;;;;;27.30;15.90;;;;;;;3.78;54.99;99448.64;218262;1276;26040;-69
2022/03/09 20:25:11;;;;;;;26.80;15.00;;;;;;;3.73;55.11;99449.61;218862;1276;26380;-69
2022/03/09 20:30:13;;;;;;;29.20;15.00;;;;;;;3.70;55.42;99449.94;218415;1276;25451;-70
2022/03/09 20:35:15;;;;;;;30.40;15.00;;;;;;;3.67;55.62;99454.83;218442;1276;25371;-70
2022/03/09 20:40:21;;;;;;;30.70;15.50;;;;;;;3.64;55.74;99454.95;218307;1276;22641;-69
2022/03/09 20:45:23;;;;;;;25.20;13.90;;;;;;;3.61;55.85;99457.60;218100;1276;25329;-67
2022/03/09 20:50:26;;;;;;;25.60;14.50;;;;;;;3.58;56.05;99457.76;218348;1276;22700;-68
2022/03/09 20:55:32;;;;;;;22.90;13.90;;;;;;;3.57;56.25;99459.46;218192;1276;25253;-69
2022/03/09 21:00:35;;;;;;;26.00;13.80;;;;;;;3.53;56.36;99460.73;218134;1276;24189;-68
2022/03/09 21:05:47;;;;;;;26.70;13.70;;;;;;;3.51;56.61;99463.50;218343;1276;24345;-69
2022/03/09 21:10:50;;;;;;;30.10;14.80;;;;;;;3.51;56.70;99468.96;218024;1276;25427;-68
2022/03/09 21:15:52;;;;;;;23.60;12.00;;;;;;;3.54;56.82;99472.70;218292;1276;23097;-70
2022/03/09 21:20:55;;;;;;;19.00;10.40;;;;;;;3.63;56.75;99480.66;218578;1276;22557;-68
2022/03/09 21:25:57;;;;;;;20.50;11.20;;;;;;;3.73;56.63;99487.70;218275;1276;22619;-66
2022/03/09 21:30:59;;;;;;;19.80;10.30;;;;;;;3.81;56.62;99490.40;218283;1276;24388;-73
2022/03/09 21:36:09;;;;;;;24.00;12.60;;;;;;;3.86;56.63;99491.02;220568;1276;25718;-68
2022/03/09 21:41:14;;;;;;;25.40;12.40;;;;;;;3.90;56.49;99495.88;218231;1274;22605;-68
2022/03/09 21:46:16;;;;;;;23.00;11.90;;;;;;;3.92;56.67;99497.61;218354;1276;22697;-69
2022/03/09 21:51:21;;;;;;;24.70;12.50;;;;;;;3.91;56.67;99497.44;218553;1276;23856;-69
2022/03/09 21:56:23;;;;;;;26.00;13.00;;;;;;;3.90;56.83;99501.17;218317;1276;23091;-69
2022/03/09 22:01:32;;;;;;;33.30;16.10;;;;;;;3.89;56.72;99496.80;218183;1276;22477;-69
2022/03/09 22:06:45;;;;;;;28.00;13.50;;;;;;;3.87;56.86;99502.37;218519;1276;25486;-67
2022/03/09 22:11:47;;;;;;;35.30;16.20;;;;;;;3.85;56.83;99508.48;218673;1276;26380;-68
2022/03/09 22:16:57;;;;;;;34.50;15.00;;;;;;;3.83;56.91;99507.24;218259;1276;23025;-69
2022/03/09 22:21:59;;;;;;;30.70;15.80;;;;;;;3.82;57.25;99513.90;218198;1276;25284;-69
2022/03/09 22:27:01;;;;;;;32.20;15.70;;;;;;;3.81;57.33;99512.95;217952;1276;22584;-69
2022/03/09 22:32:05;;;;;;;29.80;15.20;;;;;;;3.81;57.33;99517.21;218336;1276;22558;-69
2022/03/09 22:37:31;;;;;;;29.20;15.90;;;;;;;3.78;57.62;99523.98;217906;1276;23181;-68
2022/03/09 22:42:53;;;;;;;40.80;18.90;;;;;;;3.76;57.93;99532.58;218125;1276;25435;-68
2022/03/09 22:47:58;;;;;;;33.10;16.80;;;;;;;3.75;58.11;99536.99;218298;1276;23215;-68
2022/03/09 22:53:06;;;;;;;33.30;15.40;;;;;;;3.74;58.08;99540.02;218361;1276;22598;-69
2022/03/09 22:58:09;;;;;;;27.20;15.00;;;;;;;3.72;58.41;99543.67;218091;1276;22606;-68
2022/03/09 23:03:25;;;;;;;28.90;14.90;;;;;;;3.71;58.72;99553.52;218364;1276;22676;-68
2022/03/09 23:08:28;;;;;;;31.20;14.70;;;;;;;3.73;59.07;99554.60;218414;1276;26380;-69
2022/03/09 23:13:31;;;;;;;30.90;16.20;;;;;;;3.75;59.44;99561.74;218292;1276;23332;-70
2022/03/09 23:18:35;;;;;;;29.60;14.50;;;;;;;3.76;60.04;99562.50;218192;1276;22542;-70
2022/03/09 23:23:38;;;;;;;11.80;6.00;;;;;;;3.78;61.00;99561.70;218522;1278;22678;-69
2022/03/09 23:28:40;;;;;;;10.10;5.40;;;;;;;3.80;61.56;99566.13;217803;1276;22559;-70
2022/03/09 23:33:42;;;;;;;6.10;3.80;;;;;;;3.80;61.97;99568.86;217871;1276;24804;-70
2022/03/09 23:38:52;;;;;;;6.80;4.10;;;;;;;3.74;62.04;99574.65;218166;1276;22616;-69